sensor_id;sensor_type;location;lat;lon;timestamp;P1;durP1;ratioP1;P2;durP2;ratioP2
68633;SDS011;55625;47.072;22.192;2023-02-13T00:02:16;16.83;;;11.52;;
68633;SDS011;55625;47.072;22.192;2023-02-13T00:04:42;10.32;;;9.23;;
68633;SDS011;55625;47.072;22.192;2023-02-13T00:07:08;14.80;;;9.07;;
68633;SDS011;55625;47.072;22.192;2023-02-13T00:09:35;21.92;;;8.93;;
68633;SDS011;55625;47.072;22.192;2023-02-13T00:12:02;12.48;;;7.95;;
68633;SDS011;55625;47.072;22.192;2023-02-13T00:14:30;12.38;;;8.02;;
68633;SDS011;55625;47.072;22.192;2023-02-13T00:16:58;10.50;;;7.60;;
68633;SDS011;55625;47.072;22.192;2023-02-13T00:19:24;10.05;;;6.72;;
68633;SDS011;55625;47.072;22.192;2023-02-13T00:21:50;11.25;;;6.38;;
68633;SDS011;55625;47.072;22.192;2023-02-13T00:24:16;12.10;;;6.57;;
68633;SDS011;55625;47.072;22.192;2023-02-13T00:26:42;20.80;;;11.63;;
68633;SDS011;55625;47.072;22.192;2023-02-13T00:29:07;10.30;;;6.23;;
68633;SDS011;55625;47.072;22.192;2023-02-13T00:31:33;13.02;;;7.75;;
68633;SDS011;55625;47.072;22.192;2023-02-13T00:33:59;12.77;;;8.90;;
68633;SDS011;55625;47.072;22.192;2023-02-13T00:36:25;14.90;;;7.30;;
68633;SDS011;55625;47.072;22.192;2023-02-13T00:38:52;13.32;;;10.15;;
68633;SDS011;55625;47.072;22.192;2023-02-13T00:41:18;11.32;;;7.40;;
68633;SDS011;55625;47.072;22.192;2023-02-13T00:43:45;10.88;;;7.57;;
68633;SDS011;55625;47.072;22.192;2023-02-13T00:46:12;14.85;;;5.68;;
68633;SDS011;55625;47.072;22.192;2023-02-13T00:48:39;14.67;;;10.20;;
68633;SDS011;55625;47.072;22.192;2023-02-13T00:51:05;16.83;;;10.30;;
68633;SDS011;55625;47.072;22.192;2023-02-13T00:53:32;10.65;;;7.35;;
68633;SDS011;55625;47.072;22.192;2023-02-13T00:56:00;11.32;;;8.15;;
68633;SDS011;55625;47.072;22.192;2023-02-13T00:58:26;14.45;;;7.38;;
68633;SDS011;55625;47.072;22.192;2023-02-13T01:04:12;16.27;;;8.18;;
68633;SDS011;55625;47.072;22.192;2023-02-13T01:06:38;14.18;;;8.45;;
68633;SDS011;55625;47.072;22.192;2023-02-13T01:09:03;13.50;;;9.60;;
68633;SDS011;55625;47.072;22.192;2023-02-13T01:11:30;26.45;;;7.60;;
68633;SDS011;55625;47.072;22.192;2023-02-13T01:13:56;10.57;;;5.82;;
68633;SDS011;55625;47.072;22.192;2023-02-13T01:16:22;15.33;;;6.13;;
68633;SDS011;55625;47.072;22.192;2023-02-13T01:18:48;13.85;;;8.05;;
68633;SDS011;55625;47.072;22.192;2023-02-13T01:21:15;7.85;;;6.32;;
68633;SDS011;55625;47.072;22.192;2023-02-13T01:23:44;10.63;;;5.67;;
68633;SDS011;55625;47.072;22.192;2023-02-13T01:26:21;11.35;;;;;
68633;SDS011;55625;47.072;22.192;2023-02-13T01:28:52;16.95;;;6.35;;
68633;SDS011;55625;47.072;22.192;2023-02-13T01:31:19;19.90;;;8.60;;
68633;SDS011;55625;47.072;22.192;2023-02-13T01:33:45;10.07;;;6.80;;
68633;SDS011;55625;47.072;22.192;2023-02-13T01:36:11;6.13;;;5.43;;
68633;SDS011;55625;47.072;22.192;2023-02-13T01:38:38;11.30;;;4.82;;
68633;SDS011;55625;47.072;22.192;2023-02-13T01:41:05;6.53;;;5.63;;
68633;SDS011;55625;47.072;22.192;2023-02-13T01:43:45;5.68;;;5.07;;
68633;SDS011;55625;47.072;22.192;2023-02-13T01:46:34;5.90;;;3.97;;
68633;SDS011;55625;47.072;22.192;2023-02-13T01:49:19;10.05;;;4.97;;
68633;SDS011;55625;47.072;22.192;2023-02-13T01:51:50;8.95;;;6.32;;
68633;SDS011;55625;47.072;22.192;2023-02-13T01:54:21;6.35;;;5.35;;
68633;SDS011;55625;47.072;22.192;2023-02-13T01:56:56;7.68;;;4.50;;
68633;SDS011;55625;47.072;22.192;2023-02-13T01:59:28;6.80;;;5.80;;
68633;SDS011;55625;47.072;22.192;2023-02-13T02:02:01;13.68;;;5.68;;
68633;SDS011;55625;47.072;22.192;2023-02-13T02:04:28;5.60;;;4.53;;
68633;SDS011;55625;47.072;22.192;2023-02-13T02:07:09;9.35;;;6.25;;
68633;SDS011;55625;47.072;22.192;2023-02-13T02:09:42;13.90;;;4.55;;
68633;SDS011;55625;47.072;22.192;2023-02-13T02:12:26;5.60;;;3.20;;
68633;SDS011;55625;47.072;22.192;2023-02-13T02:15:16;6.63;;;4.50;;
68633;SDS011;55625;47.072;22.192;2023-02-13T02:17:42;7.55;;;4.45;;
68633;SDS011;55625;47.072;22.192;2023-02-13T02:32:29;6.82;;;4.80;;
68633;SDS011;55625;47.072;22.192;2023-02-13T02:41:04;7.97;;;4.20;;
68633;SDS011;55625;47.072;22.192;2023-02-13T02:48:05;3.70;;;3.08;;
68633;SDS011;55625;47.072;22.192;2023-02-13T02:56:39;13.47;;;3.20;;
68633;SDS011;55625;47.072;22.192;2023-02-13T02:59:11;3.90;;;3.13;;
68633;SDS011;55625;47.072;22.192;2023-02-13T03:02:02;5.93;;;3.45;;
68633;SDS011;55625;47.072;22.192;2023-02-13T03:04:50;14.80;;;5.63;;
68633;SDS011;55625;47.072;22.192;2023-02-13T03:07:37;6.32;;;4.18;;
68633;SDS011;55625;47.072;22.192;2023-02-13T03:10:04;7.17;;;4.57;;
68633;SDS011;55625;47.072;22.192;2023-02-13T03:13:16;6.53;;;4.53;;
68633;SDS011;55625;47.072;22.192;2023-02-13T03:16:03;6.10;;;3.63;;
68633;SDS011;55625;47.072;22.192;2023-02-13T03:18:49;15.77;;;4.65;;
68633;SDS011;55625;47.072;22.192;2023-02-13T03:21:49;6.07;;;4.37;;
68633;SDS011;55625;47.072;22.192;2023-02-13T03:27:10;8.10;;;4.63;;
68633;SDS011;55625;47.072;22.192;2023-02-13T03:30:50;4.27;;;3.17;;
68633;SDS011;55625;47.072;22.192;2023-02-13T03:33:55;7.95;;;5.25;;
68633;SDS011;55625;47.072;22.192;2023-02-13T03:45:36;8.37;;;4.73;;
68633;SDS011;55625;47.072;22.192;2023-02-13T03:48:38;4.80;;;3.00;;
68633;SDS011;55625;47.072;22.192;2023-02-13T03:53:59;3.50;;;2.75;;
68633;SDS011;55625;47.072;22.192;2023-02-13T03:56:32;8.75;;;4.60;;
68633;SDS011;55625;47.072;22.192;2023-02-13T03:59:23;8.10;;;4.00;;
68633;SDS011;55625;47.072;22.192;2023-02-13T04:02:00;3.92;;;2.80;;
68633;SDS011;55625;47.072;22.192;2023-02-13T04:04:46;5.43;;;3.80;;
68633;SDS011;55625;47.072;22.192;2023-02-13T04:07:35;6.63;;;4.88;;
68633;SDS011;55625;47.072;22.192;2023-02-13T04:16:05;5.18;;;3.88;;
68633;SDS011;55625;47.072;22.192;2023-02-13T04:18:38;2.53;;;1.48;;
68633;SDS011;55625;47.072;22.192;2023-02-13T04:21:05;9.02;;;6.10;;
68633;SDS011;55625;47.072;22.192;2023-02-13T04:23:32;15.90;;;3.95;;
68633;SDS011;55625;47.072;22.192;2023-02-13T04:25:59;7.10;;;4.43;;
68633;SDS011;55625;47.072;22.192;2023-02-13T04:28:30;11.90;;;7.32;;
68633;SDS011;55625;47.072;22.192;2023-02-13T04:30:55;10.32;;;7.85;;
68633;SDS011;55625;47.072;22.192;2023-02-13T04:33:21;16.60;;;8.55;;
68633;SDS011;55625;47.072;22.192;2023-02-13T04:35:48;12.45;;;6.25;;
68633;SDS011;55625;47.072;22.192;2023-02-13T04:38:13;32.27;;;8.13;;
68633;SDS011;55625;47.072;22.192;2023-02-13T04:40:39;13.50;;;7.97;;
68633;SDS011;55625;47.072;22.192;2023-02-13T04:43:05;9.18;;;5.57;;
68633;SDS011;55625;47.072;22.192;2023-02-13T04:45:31;4.53;;;3.60;;
68633;SDS011;55625;47.072;22.192;2023-02-13T04:47:57;12.32;;;4.68;;
68633;SDS011;55625;47.072;22.192;2023-02-13T04:50:23;6.35;;;3.17;;
68633;SDS011;55625;47.072;22.192;2023-02-13T04:52:53;4.75;;;4.05;;
68633;SDS011;55625;47.072;22.192;2023-02-13T04:55:22;5.53;;;4.43;;
68633;SDS011;55625;47.072;22.192;2023-02-13T04:57:53;6.85;;;5.78;;
68633;SDS011;55625;47.072;22.192;2023-02-13T05:00:20;5.03;;;4.55;;
68633;SDS011;55625;47.072;22.192;2023-02-13T05:02:48;6.15;;;5.47;;
68633;SDS011;55625;47.072;22.192;2023-02-13T05:05:14;7.40;;;3.75;;
68633;SDS011;55625;47.072;22.192;2023-02-13T05:07:40;7.40;;;4.30;;
68633;SDS011;55625;47.072;22.192;2023-02-13T05:10:07;8.50;;;5.07;;
68633;SDS011;55625;47.072;22.192;2023-02-13T05:12:35;8.98;;;5.10;;
68633;SDS011;55625;47.072;22.192;2023-02-13T05:15:01;3.42;;;1.83;;
68633;SDS011;55625;47.072;22.192;2023-02-13T05:17:27;5.43;;;4.65;;
68633;SDS011;55625;47.072;22.192;2023-02-13T05:19:53;6.07;;;4.63;;
68633;SDS011;55625;47.072;22.192;2023-02-13T05:22:19;8.50;;;4.75;;
68633;SDS011;55625;47.072;22.192;2023-02-13T05:25:04;5.10;;;4.28;;
68633;SDS011;55625;47.072;22.192;2023-02-13T05:27:30;7.87;;;5.33;;
68633;SDS011;55625;47.072;22.192;2023-02-13T05:29:56;4.57;;;3.33;;
68633;SDS011;55625;47.072;22.192;2023-02-13T05:32:21;3.33;;;3.00;;
68633;SDS011;55625;47.072;22.192;2023-02-13T05:34:47;4.27;;;3.87;;
68633;SDS011;55625;47.072;22.192;2023-02-13T05:37:13;5.70;;;3.85;;
68633;SDS011;55625;47.072;22.192;2023-02-13T05:39:39;4.97;;;3.73;;
68633;SDS011;55625;47.072;22.192;2023-02-13T05:42:05;7.20;;;4.72;;
68633;SDS011;55625;47.072;22.192;2023-02-13T05:44:31;11.43;;;4.55;;
68633;SDS011;55625;47.072;22.192;2023-02-13T05:46:57;4.28;;;3.67;;
68633;SDS011;55625;47.072;22.192;2023-02-13T05:49:23;11.87;;;4.40;;
68633;SDS011;55625;47.072;22.192;2023-02-13T05:51:49;8.82;;;6.35;;
68633;SDS011;55625;47.072;22.192;2023-02-13T05:54:16;11.40;;;5.03;;
68633;SDS011;55625;47.072;22.192;2023-02-13T05:56:42;6.20;;;5.35;;
68633;SDS011;55625;47.072;22.192;2023-02-13T05:59:08;7.70;;;3.47;;
68633;SDS011;55625;47.072;22.192;2023-02-13T06:01:34;7.93;;;4.32;;
68633;SDS011;55625;47.072;22.192;2023-02-13T06:04:00;7.68;;;4.13;;
68633;SDS011;55625;47.072;22.192;2023-02-13T06:06:26;6.45;;;4.10;;
68633;SDS011;55625;47.072;22.192;2023-02-13T06:08:52;7.80;;;6.63;;
68633;SDS011;55625;47.072;22.192;2023-02-13T06:11:18;5.97;;;5.00;;
68633;SDS011;55625;47.072;22.192;2023-02-13T06:13:44;5.20;;;2.90;;
68633;SDS011;55625;47.072;22.192;2023-02-13T06:16:10;3.33;;;2.75;;
68633;SDS011;55625;47.072;22.192;2023-02-13T06:18:37;7.30;;;4.37;;
68633;SDS011;55625;47.072;22.192;2023-02-13T06:21:03;10.80;;;7.40;;
68633;SDS011;55625;47.072;22.192;2023-02-13T06:23:30;6.72;;;4.60;;
68633;SDS011;55625;47.072;22.192;2023-02-13T06:26:00;9.95;;;4.65;;
68633;SDS011;55625;47.072;22.192;2023-02-13T06:28:30;10.23;;;7.07;;
68633;SDS011;55625;47.072;22.192;2023-02-13T06:30:57;8.60;;;4.87;;
68633;SDS011;55625;47.072;22.192;2023-02-13T06:33:23;6.25;;;4.57;;
68633;SDS011;55625;47.072;22.192;2023-02-13T06:35:49;6.50;;;5.88;;
68633;SDS011;55625;47.072;22.192;2023-02-13T06:38:15;4.32;;;3.45;;
68633;SDS011;55625;47.072;22.192;2023-02-13T06:40:45;16.73;;;4.53;;
68633;SDS011;55625;47.072;22.192;2023-02-13T06:43:12;6.47;;;4.20;;
68633;SDS011;55625;47.072;22.192;2023-02-13T06:45:39;4.95;;;4.50;;
68633;SDS011;55625;47.072;22.192;2023-02-13T06:48:05;11.68;;;6.35;;
68633;SDS011;55625;47.072;22.192;2023-02-13T06:50:31;11.20;;;5.95;;
68633;SDS011;55625;47.072;22.192;2023-02-13T06:52:58;6.70;;;4.17;;
68633;SDS011;55625;47.072;22.192;2023-02-13T06:55:24;10.38;;;6.45;;
68633;SDS011;55625;47.072;22.192;2023-02-13T06:57:51;4.97;;;4.45;;
68633;SDS011;55625;47.072;22.192;2023-02-13T07:00:17;3.60;;;3.30;;
68633;SDS011;55625;47.072;22.192;2023-02-13T07:02:44;15.63;;;8.43;;
68633;SDS011;55625;47.072;22.192;2023-02-13T07:05:12;10.60;;;6.17;;
68633;SDS011;55625;47.072;22.192;2023-02-13T07:07:39;10.02;;;6.45;;
68633;SDS011;55625;47.072;22.192;2023-02-13T07:10:07;12.60;;;7.18;;
68633;SDS011;55625;47.072;22.192;2023-02-13T07:12:36;13.05;;;8.93;;
68633;SDS011;55625;47.072;22.192;2023-02-13T07:15:03;11.25;;;8.65;;
68633;SDS011;55625;47.072;22.192;2023-02-13T07:17:29;18.03;;;4.30;;
68633;SDS011;55625;47.072;22.192;2023-02-13T07:19:55;8.95;;;5.15;;
68633;SDS011;55625;47.072;22.192;2023-02-13T07:22:21;14.98;;;9.23;;
68633;SDS011;55625;47.072;22.192;2023-02-13T07:24:47;8.27;;;5.07;;
68633;SDS011;55625;47.072;22.192;2023-02-13T07:27:13;8.57;;;6.20;;
68633;SDS011;55625;47.072;22.192;2023-02-13T07:29:39;10.73;;;7.32;;
68633;SDS011;55625;47.072;22.192;2023-02-13T07:32:05;6.20;;;5.10;;
68633;SDS011;55625;47.072;22.192;2023-02-13T07:34:31;8.23;;;7.30;;
68633;SDS011;55625;47.072;22.192;2023-02-13T07:36:57;12.18;;;6.20;;
68633;SDS011;55625;47.072;22.192;2023-02-13T07:39:23;11.07;;;6.45;;
68633;SDS011;55625;47.072;22.192;2023-02-13T07:41:49;10.03;;;5.67;;
68633;SDS011;55625;47.072;22.192;2023-02-13T07:44:16;7.95;;;5.20;;
68633;SDS011;55625;47.072;22.192;2023-02-13T07:46:42;9.48;;;6.35;;
68633;SDS011;55625;47.072;22.192;2023-02-13T07:49:08;17.70;;;6.68;;
68633;SDS011;55625;47.072;22.192;2023-02-13T07:51:34;11.80;;;5.23;;
68633;SDS011;55625;47.072;22.192;2023-02-13T07:54:00;7.40;;;4.05;;
68633;SDS011;55625;47.072;22.192;2023-02-13T07:56:26;6.85;;;5.60;;
68633;SDS011;55625;47.072;22.192;2023-02-13T07:58:52;8.52;;;4.60;;
68633;SDS011;55625;47.072;22.192;2023-02-13T08:01:18;13.07;;;6.57;;
68633;SDS011;55625;47.072;22.192;2023-02-13T08:03:46;6.53;;;4.75;;
68633;SDS011;55625;47.072;22.192;2023-02-13T08:06:16;11.13;;;5.15;;
68633;SDS011;55625;47.072;22.192;2023-02-13T08:08:44;7.93;;;5.55;;
68633;SDS011;55625;47.072;22.192;2023-02-13T08:11:31;8.93;;;5.70;;
68633;SDS011;55625;47.072;22.192;2023-02-13T08:14:15;11.30;;;5.57;;
68633;SDS011;55625;47.072;22.192;2023-02-13T08:16:41;8.32;;;5.88;;
68633;SDS011;55625;47.072;22.192;2023-02-13T08:19:07;8.63;;;5.47;;
68633;SDS011;55625;47.072;22.192;2023-02-13T08:21:33;7.32;;;3.83;;
68633;SDS011;55625;47.072;22.192;2023-02-13T08:23:59;7.30;;;4.28;;
68633;SDS011;55625;47.072;22.192;2023-02-13T08:26:25;10.18;;;5.20;;
68633;SDS011;55625;47.072;22.192;2023-02-13T08:28:51;5.07;;;3.97;;
68633;SDS011;55625;47.072;22.192;2023-02-13T08:31:17;6.63;;;4.70;;
68633;SDS011;55625;47.072;22.192;2023-02-13T08:33:42;8.15;;;3.58;;
68633;SDS011;55625;47.072;22.192;2023-02-13T08:36:08;8.93;;;6.07;;
68633;SDS011;55625;47.072;22.192;2023-02-13T08:38:34;12.38;;;5.82;;
68633;SDS011;55625;47.072;22.192;2023-02-13T08:41:00;13.88;;;6.60;;
68633;SDS011;55625;47.072;22.192;2023-02-13T08:43:26;9.50;;;4.90;;
68633;SDS011;55625;47.072;22.192;2023-02-13T08:45:52;22.35;;;6.13;;
68633;SDS011;55625;47.072;22.192;2023-02-13T08:48:17;7.07;;;5.53;;
68633;SDS011;55625;47.072;22.192;2023-02-13T08:50:43;8.53;;;5.87;;
68633;SDS011;55625;47.072;22.192;2023-02-13T08:53:09;9.07;;;5.22;;
68633;SDS011;55625;47.072;22.192;2023-02-13T08:55:35;12.50;;;8.83;;
68633;SDS011;55625;47.072;22.192;2023-02-13T08:58:01;9.57;;;6.10;;
68633;SDS011;55625;47.072;22.192;2023-02-13T09:00:28;10.63;;;4.47;;
68633;SDS011;55625;47.072;22.192;2023-02-13T09:02:55;9.73;;;6.25;;
68633;SDS011;55625;47.072;22.192;2023-02-13T09:05:26;9.38;;;4.68;;
68633;SDS011;55625;47.072;22.192;2023-02-13T09:07:53;7.87;;;5.70;;
68633;SDS011;55625;47.072;22.192;2023-02-13T09:10:18;8.90;;;6.72;;
68633;SDS011;55625;47.072;22.192;2023-02-13T09:12:50;13.48;;;6.60;;
68633;SDS011;55625;47.072;22.192;2023-02-13T09:15:17;9.20;;;5.03;;
68633;SDS011;55625;47.072;22.192;2023-02-13T09:17:43;12.47;;;7.53;;
68633;SDS011;55625;47.072;22.192;2023-02-13T09:20:08;9.80;;;7.13;;
68633;SDS011;55625;47.072;22.192;2023-02-13T09:22:38;10.20;;;5.82;;
68633;SDS011;55625;47.072;22.192;2023-02-13T09:25:06;12.00;;;8.87;;
68633;SDS011;55625;47.072;22.192;2023-02-13T09:27:33;14.15;;;6.95;;
68633;SDS011;55625;47.072;22.192;2023-02-13T09:30:00;14.35;;;7.82;;
68633;SDS011;55625;47.072;22.192;2023-02-13T09:32:26;11.40;;;7.93;;
68633;SDS011;55625;47.072;22.192;2023-02-13T09:34:52;12.20;;;4.97;;
68633;SDS011;55625;47.072;22.192;2023-02-13T09:37:18;12.55;;;4.10;;
68633;SDS011;55625;47.072;22.192;2023-02-13T09:39:44;11.90;;;6.45;;
68633;SDS011;55625;47.072;22.192;2023-02-13T09:42:14;5.90;;;4.77;;
68633;SDS011;55625;47.072;22.192;2023-02-13T09:44:49;9.80;;;7.07;;
68633;SDS011;55625;47.072;22.192;2023-02-13T09:47:29;8.32;;;4.68;;
68633;SDS011;55625;47.072;22.192;2023-02-13T09:52:38;8.05;;;5.22;;
68633;SDS011;55625;47.072;22.192;2023-02-13T09:55:14;13.03;;;7.50;;
68633;SDS011;55625;47.072;22.192;2023-02-13T09:57:46;11.27;;;8.02;;
68633;SDS011;55625;47.072;22.192;2023-02-13T10:00:40;9.43;;;6.22;;
68633;SDS011;55625;47.072;22.192;2023-02-13T10:03:24;9.90;;;3.47;;
68633;SDS011;55625;47.072;22.192;2023-02-13T10:08:50;9.97;;;5.40;;
68633;SDS011;55625;47.072;22.192;2023-02-13T10:11:42;18.23;;;4.85;;
68633;SDS011;55625;47.072;22.192;2023-02-13T10:19:46;14.02;;;7.53;;
68633;SDS011;55625;47.072;22.192;2023-02-13T10:22:42;9.10;;;4.80;;
68633;SDS011;55625;47.072;22.192;2023-02-13T10:25:17;8.52;;;5.60;;
68633;SDS011;55625;47.072;22.192;2023-02-13T10:28:03;10.02;;;6.03;;
68633;SDS011;55625;47.072;22.192;2023-02-13T10:30:45;9.65;;;3.50;;
68633;SDS011;55625;47.072;22.192;2023-02-13T10:36:04;9.47;;;3.10;;
68633;SDS011;55625;47.072;22.192;2023-02-13T10:38:43;6.47;;;2.67;;
68633;SDS011;55625;47.072;22.192;2023-02-13T10:41:22;7.15;;;4.28;;
68633;SDS011;55625;47.072;22.192;2023-02-13T10:47:13;10.57;;;5.28;;
68633;SDS011;55625;47.072;22.192;2023-02-13T10:53:10;16.17;;;5.72;;
68633;SDS011;55625;47.072;22.192;2023-02-13T10:59:25;10.18;;;4.47;;
68633;SDS011;55625;47.072;22.192;2023-02-13T11:02:23;7.10;;;2.90;;
68633;SDS011;55625;47.072;22.192;2023-02-13T11:05:09;8.47;;;4.67;;
68633;SDS011;55625;47.072;22.192;2023-02-13T11:07:44;8.73;;;3.47;;
68633;SDS011;55625;47.072;22.192;2023-02-13T11:10:14;8.35;;;3.05;;
68633;SDS011;55625;47.072;22.192;2023-02-13T11:12:50;6.65;;;4.18;;
68633;SDS011;55625;47.072;22.192;2023-02-13T11:15:30;7.38;;;3.35;;
68633;SDS011;55625;47.072;22.192;2023-02-13T11:17:58;8.57;;;4.37;;
68633;SDS011;55625;47.072;22.192;2023-02-13T11:20:40;8.90;;;3.70;;
68633;SDS011;55625;47.072;22.192;2023-02-13T11:28:33;3.80;;;2.53;;
68633;SDS011;55625;47.072;22.192;2023-02-13T11:31:35;29.13;;;4.37;;
68633;SDS011;55625;47.072;22.192;2023-02-13T11:36:49;10.43;;;3.35;;
68633;SDS011;55625;47.072;22.192;2023-02-13T11:39:36;5.22;;;3.50;;
68633;SDS011;55625;47.072;22.192;2023-02-13T11:42:14;9.80;;;6.13;;
68633;SDS011;55625;47.072;22.192;2023-02-13T11:44:50;6.20;;;3.37;;
68633;SDS011;55625;47.072;22.192;2023-02-13T11:47:39;8.50;;;2.75;;
68633;SDS011;55625;47.072;22.192;2023-02-13T11:50:29;13.05;;;4.68;;
68633;SDS011;55625;47.072;22.192;2023-02-13T11:53:08;7.25;;;4.25;;
68633;SDS011;55625;47.072;22.192;2023-02-13T11:58:32;7.37;;;4.37;;
68633;SDS011;55625;47.072;22.192;2023-02-13T12:03:43;12.77;;;5.07;;
68633;SDS011;55625;47.072;22.192;2023-02-13T12:06:20;6.72;;;4.78;;
68633;SDS011;55625;47.072;22.192;2023-02-13T12:08:47;9.33;;;4.53;;
68633;SDS011;55625;47.072;22.192;2023-02-13T12:14:19;10.85;;;4.60;;
68633;SDS011;55625;47.072;22.192;2023-02-13T12:16:56;11.18;;;3.97;;
68633;SDS011;55625;47.072;22.192;2023-02-13T12:27:54;4.15;;;1.95;;
68633;SDS011;55625;47.072;22.192;2023-02-13T12:30:37;8.23;;;4.15;;
68633;SDS011;55625;47.072;22.192;2023-02-13T12:33:43;7.28;;;3.47;;
68633;SDS011;55625;47.072;22.192;2023-02-13T12:45:25;6.80;;;3.60;;
68633;SDS011;55625;47.072;22.192;2023-02-13T12:48:27;5.75;;;3.30;;
68633;SDS011;55625;47.072;22.192;2023-02-13T12:51:32;18.50;;;5.80;;
68633;SDS011;55625;47.072;22.192;2023-02-13T12:54:46;10.57;;;4.07;;
68633;SDS011;55625;47.072;22.192;2023-02-13T13:15:45;11.48;;;5.63;;
68633;SDS011;55625;47.072;22.192;2023-02-13T13:21:52;10.07;;;4.93;;
68633;SDS011;55625;47.072;22.192;2023-02-13T13:27:25;12.93;;;4.15;;
68633;SDS011;55625;47.072;22.192;2023-02-13T13:30:03;10.63;;;3.63;;
68633;SDS011;55625;47.072;22.192;2023-02-13T13:39:14;11.82;;;4.78;;
68633;SDS011;55625;47.072;22.192;2023-02-13T13:50:04;17.37;;;4.70;;
68633;SDS011;55625;47.072;22.192;2023-02-13T13:52:41;9.00;;;5.28;;
68633;SDS011;55625;47.072;22.192;2023-02-13T13:56:08;18.38;;;4.80;;
68633;SDS011;55625;47.072;22.192;2023-02-13T14:03:57;7.07;;;4.40;;
68633;SDS011;55625;47.072;22.192;2023-02-13T14:11:52;8.77;;;4.88;;
68633;SDS011;55625;47.072;22.192;2023-02-13T14:16:53;5.37;;;2.47;;
68633;SDS011;55625;47.072;22.192;2023-02-13T14:24:56;6.40;;;3.55;;
68633;SDS011;55625;47.072;22.192;2023-02-13T14:30:05;14.57;;;4.57;;
68633;SDS011;55625;47.072;22.192;2023-02-13T14:32:59;9.82;;;3.65;;
68633;SDS011;55625;47.072;22.192;2023-02-13T14:35:31;9.80;;;5.22;;
68633;SDS011;55625;47.072;22.192;2023-02-13T14:38:02;10.15;;;5.57;;
68633;SDS011;55625;47.072;22.192;2023-02-13T14:51:56;13.60;;;6.78;;
68633;SDS011;55625;47.072;22.192;2023-02-13T14:59:48;11.93;;;5.82;;
68633;SDS011;55625;47.072;22.192;2023-02-13T15:02:34;8.07;;;4.15;;
68633;SDS011;55625;47.072;22.192;2023-02-13T15:05:15;14.20;;;6.22;;
68633;SDS011;55625;47.072;22.192;2023-02-13T15:07:58;15.00;;;7.53;;
68633;SDS011;55625;47.072;22.192;2023-02-13T15:13:24;12.82;;;4.78;;
68633;SDS011;55625;47.072;22.192;2023-02-13T15:16:07;14.80;;;6.18;;
68633;SDS011;55625;47.072;22.192;2023-02-13T15:18:40;7.65;;;4.45;;
68633;SDS011;55625;47.072;22.192;2023-02-13T15:21:20;13.93;;;4.78;;
68633;SDS011;55625;47.072;22.192;2023-02-13T15:23:56;11.37;;;5.50;;
68633;SDS011;55625;47.072;22.192;2023-02-13T15:26:23;17.30;;;7.72;;
68633;SDS011;55625;47.072;22.192;2023-02-13T15:28:59;9.57;;;5.22;;
68633;SDS011;55625;47.072;22.192;2023-02-13T15:31:40;23.25;;;8.05;;
68633;SDS011;55625;47.072;22.192;2023-02-13T15:34:22;22.27;;;10.00;;
68633;SDS011;55625;47.072;22.192;2023-02-13T15:36:58;12.05;;;8.15;;
68633;SDS011;55625;47.072;22.192;2023-02-13T15:39:29;18.45;;;8.77;;
68633;SDS011;55625;47.072;22.192;2023-02-13T15:41:57;15.25;;;8.27;;
68633;SDS011;55625;47.072;22.192;2023-02-13T15:47:08;17.20;;;9.93;;
68633;SDS011;55625;47.072;22.192;2023-02-13T15:49:54;29.98;;;10.82;;
68633;SDS011;55625;47.072;22.192;2023-02-13T15:52:22;21.25;;;11.98;;
68633;SDS011;55625;47.072;22.192;2023-02-13T15:54:59;20.50;;;11.63;;
68633;SDS011;55625;47.072;22.192;2023-02-13T15:57:25;26.48;;;13.73;;
68633;SDS011;55625;47.072;22.192;2023-02-13T15:59:53;19.83;;;11.30;;
68633;SDS011;55625;47.072;22.192;2023-02-13T16:02:22;36.17;;;15.95;;
68633;SDS011;55625;47.072;22.192;2023-02-13T16:05:06;22.67;;;12.57;;
68633;SDS011;55625;47.072;22.192;2023-02-13T16:07:46;28.88;;;18.05;;
68633;SDS011;55625;47.072;22.192;2023-02-13T16:10:29;20.98;;;13.52;;
68633;SDS011;55625;47.072;22.192;2023-02-13T16:12:58;33.83;;;15.23;;
68633;SDS011;55625;47.072;22.192;2023-02-13T16:15:30;39.25;;;17.40;;
68633;SDS011;55625;47.072;22.192;2023-02-13T16:18:00;34.92;;;14.90;;
68633;SDS011;55625;47.072;22.192;2023-02-13T16:20:28;26.88;;;10.88;;
68633;SDS011;55625;47.072;22.192;2023-02-13T16:23:00;29.17;;;15.43;;
68633;SDS011;55625;47.072;22.192;2023-02-13T16:25:48;29.47;;;15.57;;
68633;SDS011;55625;47.072;22.192;2023-02-13T16:28:20;34.50;;;15.32;;
68633;SDS011;55625;47.072;22.192;2023-02-13T16:31:00;29.10;;;14.52;;
68633;SDS011;55625;47.072;22.192;2023-02-13T16:33:27;24.48;;;14.35;;
68633;SDS011;55625;47.072;22.192;2023-02-13T16:44:03;19.58;;;11.65;;
68633;SDS011;55625;47.072;22.192;2023-02-13T16:54:30;14.07;;;9.82;;
68633;SDS011;55625;47.072;22.192;2023-02-13T17:02:22;17.80;;;11.80;;
68633;SDS011;55625;47.072;22.192;2023-02-13T17:12:46;32.53;;;13.80;;
68633;SDS011;55625;47.072;22.192;2023-02-13T17:15:16;19.42;;;11.48;;
68633;SDS011;55625;47.072;22.192;2023-02-13T17:17:45;19.50;;;11.53;;
68633;SDS011;55625;47.072;22.192;2023-02-13T17:20:16;25.95;;;14.68;;
68633;SDS011;55625;47.072;22.192;2023-02-13T17:22:47;28.83;;;13.60;;
68633;SDS011;55625;47.072;22.192;2023-02-13T17:27:45;36.42;;;19.50;;
68633;SDS011;55625;47.072;22.192;2023-02-13T17:30:13;29.47;;;20.03;;
68633;SDS011;55625;47.072;22.192;2023-02-13T17:32:45;30.08;;;20.60;;
68633;SDS011;55625;47.072;22.192;2023-02-13T17:35:13;42.05;;;24.42;;
68633;SDS011;55625;47.072;22.192;2023-02-13T17:37:41;56.22;;;23.00;;
68633;SDS011;55625;47.072;22.192;2023-02-13T17:40:12;27.50;;;21.80;;
68633;SDS011;55625;47.072;22.192;2023-02-13T17:42:42;27.03;;;18.03;;
68633;SDS011;55625;47.072;22.192;2023-02-13T17:45:12;34.10;;;23.73;;
68633;SDS011;55625;47.072;22.192;2023-02-13T17:47:40;27.35;;;21.13;;
68633;SDS011;55625;47.072;22.192;2023-02-13T17:50:06;39.17;;;19.67;;
68633;SDS011;55625;47.072;22.192;2023-02-13T17:52:33;31.10;;;16.17;;
68633;SDS011;55625;47.072;22.192;2023-02-13T17:54:59;26.50;;;19.37;;
68633;SDS011;55625;47.072;22.192;2023-02-13T17:57:25;25.98;;;19.40;;
68633;SDS011;55625;47.072;22.192;2023-02-13T17:59:51;28.05;;;16.80;;
68633;SDS011;55625;47.072;22.192;2023-02-13T18:02:18;22.17;;;15.20;;
68633;SDS011;55625;47.072;22.192;2023-02-13T18:04:46;34.17;;;16.48;;
68633;SDS011;55625;47.072;22.192;2023-02-13T18:07:14;33.20;;;16.73;;
68633;SDS011;55625;47.072;22.192;2023-02-13T18:09:43;36.20;;;17.75;;
68633;SDS011;55625;47.072;22.192;2023-02-13T18:12:11;30.50;;;14.17;;
68633;SDS011;55625;47.072;22.192;2023-02-13T18:14:48;30.65;;;17.10;;
68633;SDS011;55625;47.072;22.192;2023-02-13T18:17:16;18.02;;;15.10;;
68633;SDS011;55625;47.072;22.192;2023-02-13T18:19:43;17.27;;;12.40;;
68633;SDS011;55625;47.072;22.192;2023-02-13T18:22:09;17.50;;;11.88;;
68633;SDS011;55625;47.072;22.192;2023-02-13T18:24:37;14.73;;;11.60;;
68633;SDS011;55625;47.072;22.192;2023-02-13T18:27:05;15.88;;;11.57;;
68633;SDS011;55625;47.072;22.192;2023-02-13T18:29:33;17.27;;;11.63;;
68633;SDS011;55625;47.072;22.192;2023-02-13T18:32:01;21.23;;;12.13;;
68633;SDS011;55625;47.072;22.192;2023-02-13T18:34:28;16.70;;;13.27;;
68633;SDS011;55625;47.072;22.192;2023-02-13T18:36:54;17.63;;;12.40;;
68633;SDS011;55625;47.072;22.192;2023-02-13T18:39:20;18.25;;;11.25;;
68633;SDS011;55625;47.072;22.192;2023-02-13T18:41:46;23.43;;;12.00;;